Atkins, Virginia
Current Conditions -  °F | °C
As of 12:55 PM on Friday 28 Nov 2014 (Local Time) from KMKJ Reporting Station
Overcast Overcast  
Wind Chill: 20°   Ceiling: 2400
Heat Index: 30°   Visibility: 10mi
Dew Point: 18°   Wind: 13mph
Humidity: 62%   Direction: 270°W
Pressure: 30.28"   Gusts: NA
Location:  36.87°N, 81.4°W
Report Text: KMKJ 281755Z AUTO 27011KT 10SM OVC024 M01/M08 A3028 RMK AO2 T10121076 11012 21032
Loading
Personal Weather Stations






























Interactive Weather Map New forecast layout! Learn more

10-Day Weather Forecast

Advertisements
Track Severe Weather on mobile